Address 0x10ec32b5571ae8d433407461af2eac46cd2f0e60

 
Txn Hash Method
Block
From
To
Value [Txn Fee]
0xc468c44ce670958a748a9ab487f02283dd0f38c079c26558725a4b244d95d6feClaim Reward104199872021-08-28 10:49:5123 days 16 hrs ago0x10ec32b5571ae8d433407461af2eac46cd2f0e60OUT 0x1067d34d7bebe2be81657e8a2e3cfebb0161f96b0 BNB0.00066782
0x05820455269ef5365c57f60b4b583045c928f768654a34881a7b349ed7cae684Join Raid104135792021-08-28 5:23:3723 days 22 hrs ago0x10ec32b5571ae8d433407461af2eac46cd2f0e60OUT 0x1067d34d7bebe2be81657e8a2e3cfebb0161f96b0 BNB0.00131356
0x7aebb2fbcd5157eb2ba92ac4f57f39aa92d572a05034a5324c3a2bba49d18c31Fight99511712021-08-12 0:41:3440 days 2 hrs ago0x10ec32b5571ae8d433407461af2eac46cd2f0e60OUT CryptoBlades: Gameplay0 BNB0.00082143
0x683efe38bfc236a95175ab8039d67aead07aa5011f4f99bf8178666135c91834Fight99511612021-08-12 0:41:0440 days 2 hrs ago0x10ec32b5571ae8d433407461af2eac46cd2f0e60OUT CryptoBlades: Gameplay0 BNB0.00075199
0x8a866f9b3b8e8b5f481d027411a81dea50f684c8a6ee64e76acecc2e78038627Fight99511462021-08-12 0:40:1940 days 2 hrs ago0x10ec32b5571ae8d433407461af2eac46cd2f0e60OUT CryptoBlades: Gameplay0 BNB0.00090169
0x5ff6b6c91da43a426cdac00a8fec3cfb1c806a95d7783f5497d55fc7388da0f9Fight99511272021-08-12 0:39:2140 days 2 hrs ago0x10ec32b5571ae8d433407461af2eac46cd2f0e60OUT CryptoBlades: Gameplay0 BNB0.000752855
0x02a3b17de6a08eed7400f80ea26380173514d21c018f0f40c425e111124dba31Fight99269592021-08-11 3:33:0640 days 23 hrs ago0x10ec32b5571ae8d433407461af2eac46cd2f0e60OUT CryptoBlades: Gameplay0 BNB0.000824855
0xd9aeca5f1adbbb77378ff6ae081ac89d5fbc1d7e886a9bad1c6e71b077c4fc19Fight99269442021-08-11 3:32:1740 days 23 hrs ago0x10ec32b5571ae8d433407461af2eac46cd2f0e60OUT CryptoBlades: Gameplay0 BNB0.00082356
0x2ada8fbd4f0f9babd26394678a4201a1176b4b3f81fd28f0ed50f982bdfffae2Claim Xp Rewards99269262021-08-11 3:31:1441 days 1 min ago0x10ec32b5571ae8d433407461af2eac46cd2f0e60OUT CryptoBlades: Gameplay0 BNB0.00172241
0x7a9dcd29e4d4369f4176cb6c2df54a3fbe2adf354da45f7edc87304fb24c381cFight99269112021-08-11 3:30:2641 days 1 min ago0x10ec32b5571ae8d433407461af2eac46cd2f0e60OUT CryptoBlades: Gameplay0 BNB0.000746885
0x70868f0043742612f332547526b841043a362e22e76cf559db12542a3072b151Fight99268892021-08-11 3:29:1141 days 3 mins ago0x10ec32b5571ae8d433407461af2eac46cd2f0e60OUT CryptoBlades: Gameplay0 BNB0.000750535
0x727d5543176cef9edaa3ae68760824895a82f418941b4bf3dc4c58e05ba0befdFight99268712021-08-11 3:28:0741 days 4 mins ago0x10ec32b5571ae8d433407461af2eac46cd2f0e60OUT CryptoBlades: Gameplay0 BNB0.00074703
0x7b8ad661840fdc5bf8097d1b5e734b9b253f303100ac4a95cf91217701b75df9Fight99066752021-08-10 10:34:5041 days 16 hrs ago0x10ec32b5571ae8d433407461af2eac46cd2f0e60OUT CryptoBlades: Gameplay0 BNB0.000751065
0xaf11b9dfeb70e85513df0ca7ecf97296a6bc1b9e9b2243e24a234c131a54a693Fight99066632021-08-10 10:34:1441 days 16 hrs ago0x10ec32b5571ae8d433407461af2eac46cd2f0e60OUT CryptoBlades: Gameplay0 BNB0.000751115
0x5822b25e00a6cbff048fe733eb1290fda4598f8d6d24995025b6baae4e51fd6cFight99027152021-08-10 6:49:4041 days 20 hrs ago0x10ec32b5571ae8d433407461af2eac46cd2f0e60OUT CryptoBlades: Gameplay0 BNB0.00070448
0x68271866ff851a1f595b67d78623d560f3833736016a489f05713bdc9ee57997Fight99026992021-08-10 6:48:5241 days 20 hrs ago0x10ec32b5571ae8d433407461af2eac46cd2f0e60OUT CryptoBlades: Gameplay0 BNB0.00074851
0x13ca3768fc50687acd1966366e9363abb92a0f13d433951f066b31b75448ed22Fight97971662021-08-06 12:38:5045 days 14 hrs ago0x10ec32b5571ae8d433407461af2eac46cd2f0e60OUT CryptoBlades: Gameplay0 BNB0.00069905
0x0156b36edea0a88e392796ef288e7104ab2ed9e65038c871dae06496f62e2351Fight97971472021-08-06 12:37:5345 days 14 hrs ago0x10ec32b5571ae8d433407461af2eac46cd2f0e60OUT CryptoBlades: Gameplay0 BNB0.00070296
0x7d963a4c168f8a7a2fb0db6ed65a9594baca1a8f7e91c3cdd47dc708eb81ee98Fight97971362021-08-06 12:37:2045 days 14 hrs ago0x10ec32b5571ae8d433407461af2eac46cd2f0e60OUT CryptoBlades: Gameplay0 BNB0.00070339
0x4c732b703204a9f5f66772a1e24faf48abd10d619886f88fe9b4e9420c408caaFight97971212021-08-06 12:36:3545 days 14 hrs ago0x10ec32b5571ae8d433407461af2eac46cd2f0e60OUT CryptoBlades: Gameplay0 BNB0.000705415
0xbb2f9b8a39e342ede75dc513b83805f9d209c93777eaab0df6fb91c28a61d26fFight97030772021-08-03 3:04:2549 days 27 mins ago0x10ec32b5571ae8d433407461af2eac46cd2f0e60OUT CryptoBlades: Gameplay0 BNB0.000699185
0x6b2a563cf8d50db0b5c13cde3d82700dc5132a4a242e3bd8c225b4449dacf9b4Fight97030542021-08-03 3:03:0449 days 29 mins ago0x10ec32b5571ae8d433407461af2eac46cd2f0e60OUT CryptoBlades: Gameplay0 BNB0.00070288
0x6ded2df1442ea667b93aa1ccd9c1186aa8711b798f4086e9ea33078646ef5d18Stake96848432021-08-02 11:21:1949 days 16 hrs ago0x10ec32b5571ae8d433407461af2eac46cd2f0e60OUT 0xd6b2d8f59bf30cfe7009fb4fc00a7b13ca836a2c0 BNB0.000579395
0xa6fb2c319ee724eaf9c0685b11c0ceb274c92b2731163ea978e482f0796d534eApprove96848372021-08-02 11:20:5849 days 16 hrs ago0x10ec32b5571ae8d433407461af2eac46cd2f0e60OUT CryptoBlades: SKILL Token0 BNB0.000224725
0xd765512492d2ce6c14d20424424c14acbfc6555aafce8f9154994a61e1e0140fFight96848012021-08-02 11:19:0049 days 16 hrs ago0x10ec32b5571ae8d433407461af2eac46cd2f0e60OUT CryptoBlades: Gameplay0 BNB0.00092675
[ Download CSV Export 
Latest 1 internal transaction
Parent Txn Hash Block From To Value
0x56518afd13b796f6d74b309df1d8bfea5038cd1a09d27fc39e14f3dcb0e9805c93957502021-07-23 1:59:0060 days 1 hr ago 0xcf0febd3f17cef5b47b0cd257acf6025c5bff3b70x10ec32b5571ae8d433407461af2eac46cd2f0e600.00143396963818989 BNB
[ Download CSV Export 
Loading

Contract Name:
0 BNB

Compiler Version
0

Optimization Enabled:
0 BNB

Other Settings:
-NA-
Block Transaction Gas Used Reward
Age Block Fee Address BC Fee Address Voting Power Jailed Incoming
Block Uncle Number Difficulty Gas Used Reward
Loading
Loading
Make sure to use the "Vote Down" button for any spammy posts, and the "Vote Up" for interesting conversations.